Time;durP1;ratioP1;P1;durP2;ratioP2;P2;SDS_P1;SDS_P2;PMS_P1;PMS_P2;Temp;Humidity;BMP_temperature;BMP_pressure;BME280_temperature;BME280_humidity;BME280_pressure;Samples;Min_cycle;Max_cycle;Signal;HPM_P1;HPM_P2
2021/12/05 00:24:13;;;;;;;24.48;8.30;;;4.00;99.90;;;;;;5051246;28;19944;-76
2021/12/05 00:26:41;;;;;;;21.60;7.72;;;4.10;99.90;;;;;;5034471;28;20045;-76
2021/12/05 00:34:47;;;;;;;18.05;7.88;;;4.10;99.90;;;;;;5054229;28;20091;-76
2021/12/05 00:37:57;;;;;;;18.73;7.47;;;4.10;99.90;;;;;;5053704;28;20037;-76
2021/12/05 00:48:07;;;;;;;16.98;7.28;;;4.00;99.90;;;;;;5053875;28;20128;-76
2021/12/05 00:53:31;;;;;;;19.02;7.22;;;4.10;99.90;;;;;;5053687;28;20048;-76
2021/12/05 00:56:13;;;;;;;22.20;7.80;;;4.00;99.90;;;;;;5053571;28;20212;-78
2021/12/05 00:59:14;;;;;;;21.52;7.40;;;4.00;99.90;;;;;;5053459;28;20106;-76
2021/12/05 01:04:44;;;;;;;18.20;7.47;;;4.00;99.90;;;;;;5052914;28;20135;-75
2021/12/05 01:14:59;;;;;;;18.57;7.70;;;4.00;99.90;;;;;;5053226;28;20554;-75
2021/12/05 01:17:31;;;;;;;17.40;7.78;;;4.00;99.90;;;;;;5053075;28;20041;-76
2021/12/05 01:19:57;;;;;;;20.98;7.80;;;3.90;99.90;;;;;;5053454;28;20052;-76
2021/12/05 01:22:24;;;;;;;18.52;7.28;;;4.00;99.90;;;;;;5053423;28;20383;-78
2021/12/05 01:25:01;;;;;;;20.60;7.97;;;4.00;99.90;;;;;;5036779;28;20191;-76
2021/12/05 01:35:53;;;;;;;18.65;7.82;;;4.00;99.90;;;;;;5032817;28;20077;-76
2021/12/05 01:44:11;;;;;;;22.52;8.57;;;4.00;99.90;;;;;;5033103;28;20049;-77
2021/12/05 01:49:42;;;;;;;24.45;9.48;;;4.00;99.90;;;;;;5033118;28;20056;-78
2021/12/05 02:30:44;;;;;;;32.10;16.25;;;4.20;99.90;;;;;;5051768;28;20179;-76
2021/12/05 02:35:35;;;;;;;38.33;17.40;;;4.20;99.90;;;;;;5052570;28;20494;-76
2021/12/05 02:41:10;;;;;;;34.75;16.92;;;4.20;99.90;;;;;;5036732;28;20059;-76
2021/12/05 02:43:44;;;;;;;39.25;17.65;;;4.20;99.90;;;;;;5053043;28;20437;-75
2021/12/05 02:46:13;;;;;;;36.80;17.27;;;4.20;99.90;;;;;;5035486;28;20044;-76
2021/12/05 02:48:40;;;;;;;47.22;18.55;;;4.20;99.90;;;;;;5035714;28;20475;-76
2021/12/05 02:51:19;;;;;;;39.45;18.05;;;4.20;99.90;;;;;;5052092;28;20492;-76
2021/12/05 02:53:53;;;;;;;30.83;15.93;;;4.20;99.90;;;;;;5053111;28;20175;-76
2021/12/05 02:56:20;;;;;;;36.03;16.90;;;4.20;99.90;;;;;;5052335;28;20040;-76
2021/12/05 02:58:53;;;;;;;32.47;15.23;;;4.20;99.90;;;;;;5052635;28;20041;-76
2021/12/05 03:01:35;;;;;;;38.13;15.82;;;4.20;99.90;;;;;;5052248;28;20048;-76
2021/12/05 03:04:01;;;;;;;35.22;15.68;;;4.30;99.90;;;;;;5052348;28;20182;-75
2021/12/05 03:06:31;;;;;;;32.30;16.08;;;4.20;99.90;;;;;;5052546;28;20041;-77
2021/12/05 03:09:14;;;;;;;32.40;15.82;;;4.20;99.90;;;;;;5052391;28;20040;-76
2021/12/05 03:11:40;;;;;;;40.45;16.60;;;4.20;99.90;;;;;;5052251;28;20091;-76
2021/12/05 03:14:07;;;;;;;35.97;14.85;;;4.20;99.90;;;;;;5051972;28;20037;-78
2021/12/05 03:16:35;;;;;;;30.95;14.93;;;4.20;99.90;;;;;;5051777;28;20128;-76
2021/12/05 03:19:01;;;;;;;32.95;15.35;;;4.20;99.90;;;;;;5052374;28;20041;-75
2021/12/05 03:21:28;;;;;;;32.90;14.82;;;4.20;99.90;;;;;;5051967;28;20136;-76
2021/12/05 03:23:54;;;;;;;33.10;14.38;;;4.10;99.90;;;;;;5035478;28;20041;-75
2021/12/05 03:26:23;;;;;;;29.20;13.75;;;4.10;99.90;;;;;;5036417;28;20041;-76
2021/12/05 03:28:51;;;;;;;29.40;13.80;;;4.10;99.90;;;;;;5055570;28;20041;-76
2021/12/05 03:31:17;;;;;;;30.58;13.52;;;4.10;99.90;;;;;;5055723;28;20400;-75
2021/12/05 03:33:43;;;;;;;29.38;13.20;;;4.10;99.90;;;;;;5056120;28;20051;-75
2021/12/05 03:36:09;;;;;;;29.27;12.32;;;4.10;99.90;;;;;;5055792;28;20036;-75
2021/12/05 03:38:36;;;;;;;27.90;12.35;;;4.10;99.90;;;;;;5039404;28;20037;-75
2021/12/05 03:41:03;;;;;;;28.77;11.30;;;4.00;99.90;;;;;;5055564;28;20376;-76
2021/12/05 03:43:30;;;;;;;28.23;11.57;;;4.00;99.90;;;;;;5038593;28;20391;-76
2021/12/05 03:45:57;;;;;;;24.90;10.65;;;4.00;99.90;;;;;;5055455;28;20045;-75
2021/12/05 03:48:26;;;;;;;31.40;11.77;;;4.00;99.90;;;;;;5055455;28;20471;-76
2021/12/05 03:50:53;;;;;;;30.90;11.57;;;3.90;99.90;;;;;;5038925;28;20480;-77
2021/12/05 03:53:19;;;;;;;23.30;10.43;;;3.90;99.90;;;;;;5055658;28;20051;-76
2021/12/05 03:55:48;;;;;;;30.30;11.35;;;3.90;99.90;;;;;;5038756;28;20075;-76
2021/12/05 03:58:14;;;;;;;19.48;10.25;;;3.90;99.90;;;;;;5055584;28;20480;-76
2021/12/05 04:00:42;;;;;;;21.63;10.18;;;3.80;99.90;;;;;;5055541;28;20044;-76
2021/12/05 04:03:11;;;;;;;27.30;11.02;;;3.80;99.90;;;;;;5038943;28;20045;-75
2021/12/05 04:05:37;;;;;;;24.50;10.57;;;3.80;99.90;;;;;;5055646;28;20052;-75
2021/12/05 04:08:10;;;;;;;22.30;8.80;;;3.80;99.90;;;;;;5054805;28;20033;-76
2021/12/05 04:10:38;;;;;;;23.90;9.23;;;3.70;99.90;;;;;;5038448;28;20036;-76
2021/12/05 04:13:04;;;;;;;22.98;8.32;;;3.70;99.90;;;;;;5055270;28;20040;-77
2021/12/05 04:15:30;;;;;;;21.45;8.80;;;3.70;99.90;;;;;;5055088;28;20040;-78
2021/12/05 04:17:56;;;;;;;22.65;9.55;;;3.60;99.90;;;;;;5054931;28;20085;-76
2021/12/05 04:20:23;;;;;;;27.75;8.82;;;3.60;99.90;;;;;;5054784;28;20068;-75
2021/12/05 04:22:50;;;;;;;22.10;7.88;;;3.60;99.90;;;;;;5038328;28;20040;-78
2021/12/05 04:25:17;;;;;;;25.75;7.93;;;3.50;99.90;;;;;;5038141;28;20037;-76
2021/12/05 04:27:46;;;;;;;18.45;7.45;;;3.50;99.90;;;;;;5055080;28;20418;-76
2021/12/05 04:30:13;;;;;;;16.90;7.40;;;3.50;99.90;;;;;;5054937;28;20533;-76
2021/12/05 04:32:39;;;;;;;17.17;7.47;;;3.50;99.90;;;;;;5054473;28;20487;-77
2021/12/05 04:35:06;;;;;;;22.10;7.72;;;3.50;99.90;;;;;;5054776;28;20125;-76
2021/12/05 04:37:31;;;;;;;21.27;7.47;;;3.40;99.90;;;;;;5052970;28;20442;-77
2021/12/05 04:39:58;;;;;;;25.60;8.00;;;3.40;99.90;;;;;;5055051;28;20037;-76
2021/12/05 04:42:23;;;;;;;19.17;7.65;;;3.40;99.90;;;;;;5055463;28;20045;-76
2021/12/05 04:44:49;;;;;;;19.35;7.57;;;3.30;99.90;;;;;;5054633;28;20033;-77
2021/12/05 04:47:16;;;;;;;18.23;7.65;;;3.30;99.90;;;;;;5054496;28;20033;-77
2021/12/05 04:49:42;;;;;;;24.98;7.75;;;3.30;99.90;;;;;;5054391;28;20037;-76
2021/12/05 04:52:10;;;;;;;24.58;7.82;;;3.30;99.90;;;;;;5053633;28;20052;-77
2021/12/05 04:54:37;;;;;;;16.40;7.35;;;3.30;99.90;;;;;;5037904;28;20037;-75
2021/12/05 04:57:03;;;;;;;22.10;7.78;;;3.20;99.90;;;;;;5054738;28;20365;-76
2021/12/05 04:59:33;;;;;;;23.70;8.43;;;3.20;99.90;;;;;;5054539;28;20045;-78
2021/12/05 05:01:59;;;;;;;23.42;7.82;;;3.10;99.90;;;;;;5054282;28;20041;-75
2021/12/05 05:04:29;;;;;;;19.30;8.23;;;3.20;99.90;;;;;;5054116;28;20418;-76
2021/12/05 05:07:05;;;;;;;19.73;7.28;;;3.20;99.90;;;;;;5052738;28;20128;-78
2021/12/05 05:09:30;;;;;;;21.05;7.63;;;3.20;99.90;;;;;;5053297;28;20029;-75
2021/12/05 05:11:57;;;;;;;21.92;8.10;;;3.10;99.90;;;;;;5037283;28;20041;-77
2021/12/05 05:14:23;;;;;;;21.33;7.30;;;3.10;99.90;;;;;;5037560;28;20041;-76
2021/12/05 05:16:53;;;;;;;25.45;8.55;;;3.10;99.90;;;;;;5053805;28;20045;-76
2021/12/05 05:19:23;;;;;;;20.95;7.80;;;3.10;99.90;;;;;;5053662;28;20052;-77
2021/12/05 05:22:24;;;;;;;19.27;7.38;;;3.10;99.90;;;;;;5054235;28;20098;-78
2021/12/05 05:25:30;;;;;;;19.40;8.38;;;3.10;99.90;;;;;;5053787;28;20454;-76
2021/12/05 05:42:09;;;;;;;22.00;8.05;;;3.00;99.90;;;;;;5053908;28;20044;-76
2021/12/05 05:47:04;;;;;;;17.85;7.43;;;3.00;99.90;;;;;;5053643;28;20053;-76
2021/12/05 05:49:46;;;;;;;24.17;8.18;;;3.00;99.90;;;;;;5053194;28;20098;-75
2021/12/05 05:52:13;;;;;;;28.98;7.82;;;2.90;99.90;;;;;;5053313;28;20150;-78
2021/12/05 05:54:42;;;;;;;29.30;8.65;;;2.90;99.90;;;;;;5069615;28;20044;-76
2021/12/05 05:57:20;;;;;;;23.00;7.32;;;2.90;99.90;;;;;;5053342;28;20061;-75
2021/12/05 06:00:32;;;;;;;24.48;8.00;;;2.90;99.90;;;;;;5053286;28;20483;-76
2021/12/05 06:05:16;;;;;;;21.25;7.60;;;3.00;99.90;;;;;;5052447;28;20377;-76
2021/12/05 06:07:45;;;;;;;23.02;7.40;;;2.90;99.90;;;;;;5053133;28;20471;-77
2021/12/05 06:10:22;;;;;;;23.05;7.45;;;3.00;99.90;;;;;;5036652;28;20059;-76
2021/12/05 06:12:49;;;;;;;19.65;7.32;;;2.90;99.90;;;;;;5052851;28;20441;-76
2021/12/05 06:15:17;;;;;;;25.08;8.07;;;3.00;99.90;;;;;;5052938;28;20032;-76
2021/12/05 06:17:43;;;;;;;21.85;7.53;;;3.00;99.90;;;;;;5052453;28;20048;-76
2021/12/05 06:20:13;;;;;;;28.70;7.90;;;3.00;99.90;;;;;;5053181;28;20365;-76
2021/12/05 06:22:39;;;;;;;22.95;7.47;;;3.00;99.90;;;;;;5036300;28;20053;-78
2021/12/05 06:25:08;;;;;;;27.23;8.52;;;3.00;99.90;;;;;;5052808;28;20124;-78
2021/12/05 06:27:34;;;;;;;21.48;7.88;;;3.00;99.90;;;;;;5036279;28;20099;-76
2021/12/05 06:30:28;;;;;;;25.42;8.60;;;3.10;99.90;;;;;;5052676;28;20037;-77
2021/12/05 06:41:23;;;;;;;25.33;8.77;;;3.20;99.90;;;;;;5052866;28;20084;-76
2021/12/05 06:46:28;;;;;;;29.67;9.13;;;3.30;99.90;;;;;;5052581;28;20080;-77
2021/12/05 06:48:54;;;;;;;31.02;9.48;;;3.30;99.90;;;;;;5052158;28;20045;-76
2021/12/05 06:51:24;;;;;;;25.30;9.93;;;3.30;99.90;;;;;;5052699;28;20033;-76
2021/12/05 06:53:51;;;;;;;24.15;9.43;;;3.30;99.90;;;;;;5052507;28;20033;-76
2021/12/05 06:56:17;;;;;;;21.55;9.88;;;3.40;99.90;;;;;;5051454;28;20040;-76
2021/12/05 06:58:44;;;;;;;30.15;10.55;;;3.40;99.90;;;;;;5052584;28;20076;-76
2021/12/05 07:01:11;;;;;;;24.33;10.57;;;3.40;99.90;;;;;;5051390;28;20479;-76
2021/12/05 07:03:40;;;;;;;31.08;11.32;;;3.50;99.90;;;;;;5052012;28;20098;-76
2021/12/05 07:06:18;;;;;;;29.47;11.23;;;3.50;99.90;;;;;;5053023;28;20049;-76
2021/12/05 07:08:45;;;;;;;32.97;11.73;;;3.50;99.90;;;;;;5035517;28;20048;-78
2021/12/05 07:11:21;;;;;;;29.98;12.65;;;3.50;99.90;;;;;;5035642;28;20128;-76
2021/12/05 07:19:09;;;;;;;29.90;12.10;;;3.60;99.90;;;;;;5052766;28;20088;-75
2021/12/05 07:21:53;;;;;;;31.30;12.82;;;3.60;99.90;;;;;;5052183;28;20041;-75
2021/12/05 07:40:30;;;;;;;30.38;12.82;;;3.70;99.90;;;;;;5051952;28;20126;-79
2021/12/05 07:43:02;;;;;;;30.92;13.57;;;3.70;99.90;;;;;;5051805;28;20479;-77
2021/12/05 07:45:35;;;;;;;29.42;12.55;;;3.70;99.90;;;;;;5051510;28;20167;-77
2021/12/05 07:48:10;;;;;;;29.52;12.02;;;3.80;99.90;;;;;;5052086;28;20039;-77
2021/12/05 07:53:43;;;;;;;30.88;12.05;;;3.80;99.90;;;;;;5031294;28;20045;-77
2021/12/05 07:56:15;;;;;;;27.30;12.02;;;3.80;99.90;;;;;;5051716;28;20137;-77
2021/12/05 08:14:54;;;;;;;24.73;11.98;;;3.90;99.90;;;;;;5054389;28;20063;-76
2021/12/05 08:17:22;;;;;;;36.15;14.18;;;4.00;99.90;;;;;;5053935;28;20037;-76
2021/12/05 08:19:48;;;;;;;36.55;15.98;;;4.00;99.90;;;;;;5054730;28;20152;-78
2021/12/05 08:22:15;;;;;;;32.55;12.52;;;4.00;99.90;;;;;;5053967;28;20036;-77
2021/12/05 08:24:42;;;;;;;29.08;12.30;;;4.00;99.90;;;;;;5054466;28;20360;-75
2021/12/05 08:27:12;;;;;;;31.10;11.95;;;4.00;99.90;;;;;;5053898;28;20449;-76
2021/12/05 08:29:47;;;;;;;;;;;4.10;99.90;;;;;;5038190;28;20080;-77
2021/12/05 08:32:27;;;;;;;22.73;11.02;;;4.00;99.90;;;;;;5054168;28;19970;-75
2021/12/05 08:35:11;;;;;;;24.52;10.73;;;4.10;99.90;;;;;;5054446;28;20324;-76
2021/12/05 08:40:47;;;;;;;24.83;11.07;;;4.10;99.90;;;;;;5054065;28;20463;-78
2021/12/05 09:21:54;;;;;;;21.08;10.00;;;4.30;99.90;;;;;;5033181;28;20423;-74
2021/12/05 09:40:35;;;;;;;19.08;8.95;;;4.30;99.90;;;;;;5036937;28;20454;-75
2021/12/05 10:02:46;;;;;;;18.98;7.88;;;4.40;99.90;;;;;;5052685;28;20080;-75
2021/12/05 10:17:20;;;;;;;15.98;7.82;;;4.50;99.90;;;;;;5052258;28;20051;-75
2021/12/05 10:37:16;;;;;;;16.77;8.52;;;4.70;99.90;;;;;;5041789;28;20045;-75
2021/12/05 10:39:42;;;;;;;17.27;8.73;;;4.70;99.90;;;;;;5052278;28;20064;-75
2021/12/05 10:42:44;;;;;;;19.95;8.82;;;4.80;99.90;;;;;;5052131;28;20475;-75
2021/12/05 10:45:32;;;;;;;19.90;8.75;;;4.80;99.90;;;;;;5031105;28;20067;-75
2021/12/05 10:48:05;;;;;;;24.05;9.40;;;4.90;99.90;;;;;;5045218;28;20048;-75
2021/12/05 10:50:45;;;;;;;18.92;8.65;;;4.90;99.90;;;;;;5051926;28;20048;-75
2021/12/05 10:53:25;;;;;;;25.33;9.55;;;4.90;99.90;;;;;;5051201;28;20367;-75
2021/12/05 10:56:17;;;;;;;;;;;5.00;99.90;;;;;;5052685;28;20076;-76
2021/12/05 10:58:52;;;;;;;17.23;8.88;;;5.00;99.90;;;;;;5034226;28;19921;-75
2021/12/05 11:01:32;;;;;;;19.73;8.90;;;5.10;99.90;;;;;;5051453;28;20037;-75
2021/12/05 11:04:10;;;;;;;20.13;8.57;;;5.10;99.90;;;;;;5051531;28;20463;-74
2021/12/05 11:06:47;;;;;;;18.05;8.38;;;5.20;99.90;;;;;;5051149;28;20128;-75
2021/12/05 11:09:16;;;;;;;17.52;8.15;;;5.20;99.90;;;;;;5035254;28;20044;-75
2021/12/05 11:11:45;;;;;;;14.18;7.13;;;5.20;99.90;;;;;;5051616;28;20044;-75
2021/12/05 11:14:21;;;;;;;16.10;7.23;;;5.20;99.90;;;;;;5051339;28;20044;-75
2021/12/05 11:16:56;;;;;;;16.13;7.57;;;5.20;99.90;;;;;;5051515;28;20041;-75
2021/12/05 11:19:27;;;;;;;17.38;7.10;;;5.30;99.90;;;;;;5051796;28;20120;-76
2021/12/05 11:21:57;;;;;;;12.35;7.03;;;5.30;99.90;;;;;;5050630;28;20041;-74
2021/12/05 11:24:28;;;;;;;;;;;5.40;99.90;;;;;;5050140;28;20553;-75
2021/12/05 11:27:10;;;;;;;17.58;7.03;;;5.40;99.90;;;;;;5050501;28;20473;-76
2021/12/05 11:29:40;;;;;;;11.73;7.07;;;5.40;99.90;;;;;;5050708;28;20033;-75
2021/12/05 11:32:08;;;;;;;12.88;6.75;;;5.50;99.90;;;;;;5049996;28;20056;-75
2021/12/05 11:34:34;;;;;;;15.95;7.07;;;5.50;99.90;;;;;;5050202;28;20171;-75
2021/12/05 11:36:59;;;;;;;12.27;6.47;;;5.50;99.90;;;;;;5050401;28;20151;-75
2021/12/05 11:39:25;;;;;;;11.27;6.05;;;5.50;99.90;;;;;;5049560;28;20044;-75
2021/12/05 11:41:52;;;;;;;12.80;6.60;;;5.50;99.90;;;;;;5050398;28;20041;-74
2021/12/05 11:44:22;;;;;;;15.32;6.20;;;5.50;99.90;;;;;;5049942;28;20044;-75
2021/12/05 11:46:49;;;;;;;13.05;6.30;;;5.50;99.90;;;;;;5050777;28;20045;-75
2021/12/05 11:49:21;;;;;;;10.32;6.20;;;5.60;99.90;;;;;;5053966;28;20064;-74
2021/12/05 11:51:55;;;;;;;11.18;5.72;;;5.50;99.90;;;;;;5070058;28;20097;-75
2021/12/05 11:54:30;;;;;;;11.02;5.55;;;5.50;99.90;;;;;;5054002;28;20044;-75
2021/12/05 11:56:58;;;;;;;14.45;6.45;;;5.50;99.90;;;;;;5036870;28;20045;-74
2021/12/05 11:59:35;;;;;;;9.95;5.43;;;5.50;99.90;;;;;;5053519;28;20095;-75
2021/12/05 12:02:13;;;;;;;8.93;5.43;;;5.50;99.90;;;;;;5053520;28;20045;-75
2021/12/05 12:04:49;;;;;;;10.75;5.57;;;5.40;99.90;;;;;;5053870;28;20040;-74
2021/12/05 12:07:21;;;;;;;8.88;5.50;;;5.40;99.90;;;;;;5054160;28;20084;-75
2021/12/05 12:09:50;;;;;;;8.68;5.20;;;5.40;99.90;;;;;;5053481;28;20041;-74
2021/12/05 12:12:16;;;;;;;8.50;5.00;;;5.40;99.90;;;;;;5053905;28;20071;-75
2021/12/05 12:14:43;;;;;;;11.52;5.22;;;5.30;99.90;;;;;;5052935;28;20041;-76
2021/12/05 12:17:15;;;;;;;9.32;5.47;;;5.30;99.90;;;;;;5053407;28;20051;-74
2021/12/05 12:19:42;;;;;;;9.70;5.28;;;5.30;99.90;;;;;;5053053;28;20056;-74
2021/12/05 12:22:08;;;;;;;8.60;5.95;;;5.30;99.90;;;;;;5053629;28;20392;-74
2021/12/05 12:24:36;;;;;;;11.52;5.30;;;5.30;99.90;;;;;;5052999;28;20483;-74
2021/12/05 12:27:02;;;;;;;7.85;4.60;;;5.30;99.90;;;;;;5053095;28;20127;-74
2021/12/05 12:29:29;;;;;;;6.88;5.20;;;5.30;99.90;;;;;;5053391;28;20129;-74
2021/12/05 12:32:11;;;;;;;10.32;5.30;;;5.30;99.90;;;;;;5053356;28;20044;-74
2021/12/05 12:34:38;;;;;;;7.93;5.10;;;5.20;99.90;;;;;;5053545;28;20056;-74
2021/12/05 12:37:06;;;;;;;8.00;5.38;;;5.20;99.90;;;;;;5053197;28;20364;-74
2021/12/05 12:39:44;;;;;;;9.05;5.45;;;5.20;99.90;;;;;;5053033;28;20391;-74
2021/12/05 12:42:19;;;;;;;10.98;5.70;;;5.20;99.90;;;;;;5069477;28;20052;-74
2021/12/05 12:45:09;;;;;;;8.32;5.65;;;5.20;99.90;;;;;;5053462;28;20047;-73
2021/12/05 12:47:44;;;;;;;8.60;5.35;;;5.20;99.90;;;;;;5053230;28;20123;-73
2021/12/05 12:50:34;;;;;;;9.63;6.00;;;5.20;99.90;;;;;;5069857;28;20044;-74
2021/12/05 12:53:03;;;;;;;10.68;6.35;;;5.20;99.90;;;;;;5052860;28;20344;-74
2021/12/05 12:55:34;;;;;;;14.38;6.05;;;5.30;99.90;;;;;;5053248;28;20043;-73
2021/12/05 12:58:03;;;;;;;10.25;5.40;;;5.30;99.90;;;;;;5052520;28;20049;-73
2021/12/05 13:00:31;;;;;;;8.85;5.75;;;5.40;99.90;;;;;;5052233;28;20127;-74
2021/12/05 13:10:01;;;;;;;7.60;5.70;;;5.40;99.90;;;;;;5050310;28;20059;-74
2021/12/05 13:12:02;;;;;;;8.38;5.90;;;5.40;99.90;;;;;;5050692;28;20048;-73
2021/12/05 13:14:28;;;;;;;7.82;6.05;;;5.40;99.90;;;;;;5052055;28;20045;-73
2021/12/05 13:16:54;;;;;;;10.55;5.93;;;5.40;99.90;;;;;;5051058;28;20037;-75
2021/12/05 13:19:26;;;;;;;7.68;5.10;;;5.40;99.90;;;;;;5050811;28;20036;-73
2021/12/05 13:21:54;;;;;;;9.15;5.63;;;5.40;99.90;;;;;;5049786;28;20041;-75
2021/12/05 13:25:01;;;;;;;9.98;6.10;;;5.40;99.90;;;;;;5050697;28;20395;-74
2021/12/05 13:27:31;;;;;;;9.60;6.40;;;5.40;99.90;;;;;;5048335;28;20113;-74
2021/12/05 13:29:57;;;;;;;9.38;5.90;;;5.40;99.90;;;;;;5048521;28;20041;-74
2021/12/05 13:32:29;;;;;;;8.57;5.60;;;5.40;99.90;;;;;;5033408;28;20049;-73
2021/12/05 13:35:04;;;;;;;8.80;5.45;;;5.40;99.90;;;;;;5051213;28;20118;-74
2021/12/05 13:37:38;;;;;;;9.55;5.88;;;5.40;99.90;;;;;;5050967;28;20047;-75
2021/12/05 13:40:09;;;;;;;10.73;6.43;;;5.40;99.90;;;;;;5050868;28;20621;-74
2021/12/05 13:42:34;;;;;;;11.20;6.00;;;5.40;99.90;;;;;;5050299;28;20101;-75
2021/12/05 13:45:07;;;;;;;9.68;6.10;;;5.30;99.90;;;;;;5051686;28;20045;-75
2021/12/05 13:47:51;;;;;;;10.23;6.03;;;5.30;99.90;;;;;;5051984;28;20056;-74
2021/12/05 13:50:16;;;;;;;10.48;6.47;;;5.30;99.90;;;;;;5051573;28;20475;-74
2021/12/05 13:52:45;;;;;;;10.52;6.15;;;5.30;99.90;;;;;;5051749;28;20040;-74
2021/12/05 13:55:42;;;;;;;9.73;6.25;;;5.30;99.90;;;;;;5035147;28;20078;-74
2021/12/05 13:58:36;;;;;;;15.45;6.30;;;5.30;99.90;;;;;;5051800;28;20053;-74
2021/12/05 14:01:15;;;;;;;10.27;6.07;;;5.30;99.90;;;;;;5051120;28;20439;-74
2021/12/05 14:04:03;;;;;;;9.68;5.95;;;5.30;99.90;;;;;;5051918;28;20044;-74
2021/12/05 14:06:43;;;;;;;8.20;5.85;;;5.30;99.90;;;;;;5051423;28;20102;-74
2021/12/05 14:09:29;;;;;;;8.30;6.40;;;5.30;99.90;;;;;;5051806;28;20076;-74
2021/12/05 14:12:17;;;;;;;9.48;6.20;;;5.30;99.90;;;;;;5050759;28;20041;-74
2021/12/05 14:14:53;;;;;;;9.77;6.38;;;5.30;99.90;;;;;;5051116;28;20040;-74
2021/12/05 14:17:27;;;;;;;9.75;5.57;;;5.40;99.90;;;;;;5050634;28;20489;-75
2021/12/05 14:20:05;;;;;;;12.95;6.05;;;5.30;99.90;;;;;;5051421;28;20052;-74
2021/12/05 14:22:33;;;;;;;10.60;5.88;;;5.40;99.90;;;;;;5034503;28;20486;-74
2021/12/05 14:25:03;;;;;;;8.75;5.82;;;5.30;99.90;;;;;;5051341;28;20479;-74
2021/12/05 14:27:35;;;;;;;7.72;5.55;;;5.40;99.90;;;;;;5050987;28;20045;-74
2021/12/05 14:30:05;;;;;;;10.68;5.95;;;5.30;99.90;;;;;;5051093;28;20045;-74
2021/12/05 14:32:35;;;;;;;;;;;5.40;99.90;;;;;;5051353;28;20186;-75
2021/12/05 14:35:13;;;;;;;9.45;5.38;;;5.30;99.90;;;;;;5051213;28;19947;-73
2021/12/05 14:37:43;;;;;;;8.55;5.50;;;5.40;99.90;;;;;;5050460;28;20722;-74
2021/12/05 14:40:19;;;;;;;8.80;5.78;;;5.30;99.90;;;;;;5034123;28;20094;-74
2021/12/05 14:42:48;;;;;;;9.80;5.68;;;5.30;99.90;;;;;;5050732;28;20045;-73
2021/12/05 14:45:23;;;;;;;8.18;5.75;;;5.30;99.90;;;;;;5050720;28;20451;-74
2021/12/05 14:47:51;;;;;;;9.30;5.55;;;5.30;99.90;;;;;;5051217;28;20045;-74
2021/12/05 14:50:23;;;;;;;8.55;5.45;;;5.30;99.90;;;;;;5051137;28;20064;-74
2021/12/05 14:52:53;;;;;;;9.93;5.22;;;5.30;99.90;;;;;;5050912;28;20535;-74
2021/12/05 14:55:20;;;;;;;8.90;5.70;;;5.30;99.90;;;;;;5050068;28;20483;-74
2021/12/05 14:57:51;;;;;;;10.65;6.15;;;5.30;99.90;;;;;;5050034;28;20032;-74
2021/12/05 15:00:47;;;;;;;11.45;5.28;;;5.30;99.90;;;;;;5050990;28;20045;-75
2021/12/05 15:03:17;;;;;;;10.30;5.63;;;5.20;99.90;;;;;;5032387;28;20045;-74
2021/12/05 15:05:53;;;;;;;9.50;6.25;;;5.20;99.90;;;;;;5050565;28;20045;-74
2021/12/05 15:08:24;;;;;;;8.82;6.22;;;5.20;99.90;;;;;;5050217;28;20116;-75
2021/12/05 15:11:08;;;;;;;10.52;5.40;;;5.20;99.90;;;;;;5050558;28;20073;-74
2021/12/05 15:13:34;;;;;;;8.45;5.68;;;5.20;99.90;;;;;;5050375;28;20044;-74
2021/12/05 15:16:00;;;;;;;8.30;6.07;;;5.20;99.90;;;;;;5034114;28;20038;-74
2021/12/05 15:18:32;;;;;;;9.77;6.18;;;5.20;99.90;;;;;;5050644;28;20176;-74
2021/12/05 15:20:59;;;;;;;8.50;5.97;;;5.20;99.90;;;;;;5050699;28;20061;-73
2021/12/05 15:23:30;;;;;;;8.60;5.82;;;5.20;99.90;;;;;;5053506;28;20093;-74
2021/12/05 15:25:59;;;;;;;8.25;6.18;;;5.20;99.90;;;;;;5054228;28;20044;-74
2021/12/05 15:28:25;;;;;;;8.80;5.95;;;5.10;99.90;;;;;;5054822;28;20067;-73
2021/12/05 15:30:51;;;;;;;8.88;5.93;;;5.10;99.90;;;;;;5054309;28;20045;-74
2021/12/05 15:33:20;;;;;;;9.43;6.45;;;5.10;99.90;;;;;;5053091;28;20044;-74
2021/12/05 15:35:48;;;;;;;8.85;6.50;;;5.10;99.90;;;;;;5053839;28;20039;-74
2021/12/05 15:38:21;;;;;;;9.73;6.45;;;5.10;99.90;;;;;;5054470;28;20108;-73
2021/12/05 15:40:48;;;;;;;8.90;6.43;;;5.00;99.90;;;;;;5054547;28;20080;-74
2021/12/05 15:43:18;;;;;;;8.25;6.35;;;5.00;99.90;;;;;;5054478;28;20040;-74
2021/12/05 15:45:45;;;;;;;8.90;6.25;;;5.00;99.90;;;;;;5054409;28;20045;-75
2021/12/05 15:48:20;;;;;;;8.52;6.43;;;5.00;99.90;;;;;;5054103;28;20056;-74
2021/12/05 15:50:47;;;;;;;9.55;6.57;;;5.00;99.90;;;;;;5054534;28;20132;-74
2021/12/05 15:53:13;;;;;;;11.55;6.97;;;5.00;99.90;;;;;;5054189;28;20044;-73
2021/12/05 15:55:44;;;;;;;9.20;6.60;;;5.00;99.90;;;;;;5054157;28;20033;-75
2021/12/05 15:58:30;;;;;;;9.48;7.07;;;5.00;99.90;;;;;;5054214;28;20376;-74
2021/12/05 16:01:06;;;;;;;10.57;7.07;;;5.00;99.90;;;;;;5053809;28;20453;-75
2021/12/05 16:03:51;;;;;;;9.35;7.32;;;5.00;99.90;;;;;;5053815;28;20687;-74
2021/12/05 16:06:29;;;;;;;11.77;7.50;;;4.90;99.90;;;;;;5036634;28;20036;-72
2021/12/05 16:08:56;;;;;;;11.40;7.88;;;5.00;99.90;;;;;;5053596;28;20430;-74
2021/12/05 16:11:23;;;;;;;11.02;7.45;;;4.90;99.90;;;;;;5053721;28;20041;-74
2021/12/05 16:13:52;;;;;;;13.45;8.07;;;4.90;99.90;;;;;;5054112;28;20044;-74
2021/12/05 16:16:21;;;;;;;12.00;7.63;;;4.90;99.90;;;;;;5053679;28;20451;-74
2021/12/05 16:18:51;;;;;;;13.35;8.35;;;4.90;99.90;;;;;;5053799;28;20479;-74
2021/12/05 16:21:26;;;;;;;12.10;7.80;;;4.90;99.90;;;;;;5053748;28;20041;-74
2021/12/05 16:23:52;;;;;;;11.93;8.32;;;4.90;99.90;;;;;;5053525;28;20060;-74
2021/12/05 16:26:29;;;;;;;12.10;8.38;;;4.90;99.90;;;;;;5053311;28;20037;-74
2021/12/05 16:28:58;;;;;;;12.48;8.13;;;4.90;99.90;;;;;;5053636;28;20041;-75
2021/12/05 16:31:32;;;;;;;12.55;8.43;;;4.90;99.90;;;;;;5053072;28;20053;-74
2021/12/05 16:34:05;;;;;;;12.80;8.50;;;4.90;99.90;;;;;;5053614;28;20053;-73
2021/12/05 16:36:45;;;;;;;12.48;8.63;;;4.90;99.90;;;;;;5053438;28;20080;-74
2021/12/05 16:39:12;;;;;;;;;;;4.90;99.90;;;;;;5053663;28;20509;-74
2021/12/05 16:41:48;;;;;;;14.23;8.88;;;4.80;99.90;;;;;;5053189;28;19963;-74
2021/12/05 16:44:40;;;;;;;11.70;9.13;;;4.80;99.90;;;;;;5053395;28;20041;-75
2021/12/05 16:47:15;;;;;;;14.15;9.00;;;4.80;99.90;;;;;;5052975;28;20395;-75
2021/12/05 16:49:48;;;;;;;14.70;9.13;;;4.80;99.90;;;;;;5053155;28;20055;-74
2021/12/05 16:52:21;;;;;;;14.75;9.70;;;4.80;99.90;;;;;;5052840;28;20128;-74
2021/12/05 16:54:54;;;;;;;15.02;9.68;;;4.80;99.90;;;;;;5052710;28;20036;-74
2021/12/05 16:57:30;;;;;;;19.80;11.05;;;4.80;99.90;;;;;;5068049;28;20115;-75
2021/12/05 17:00:10;;;;;;;16.38;10.93;;;4.80;99.90;;;;;;5069717;28;20049;-74
2021/12/05 17:02:47;;;;;;;16.85;10.80;;;4.70;99.90;;;;;;5051779;28;20037;-74
2021/12/05 17:05:26;;;;;;;19.88;11.40;;;4.70;99.90;;;;;;5053114;28;20047;-74
2021/12/05 17:08:16;;;;;;;19.63;11.27;;;4.70;99.90;;;;;;5052943;28;20036;-74
2021/12/05 17:10:46;;;;;;;17.17;11.13;;;4.70;99.90;;;;;;5052172;28;20261;-74
2021/12/05 17:13:22;;;;;;;15.95;11.30;;;4.70;99.90;;;;;;5052793;28;20471;-74
2021/12/05 17:15:55;;;;;;;19.38;12.02;;;4.70;99.90;;;;;;5052674;28;20079;-74
2021/12/05 17:18:43;;;;;;;18.27;12.27;;;4.70;99.90;;;;;;5052659;28;20132;-75
2021/12/05 17:21:14;;;;;;;18.52;12.35;;;4.70;99.90;;;;;;5052240;28;20390;-74
2021/12/05 17:23:50;;;;;;;23.30;13.02;;;4.70;99.90;;;;;;5052473;28;20116;-73
2021/12/05 17:26:20;;;;;;;23.10;13.73;;;4.70;99.90;;;;;;5052515;28;20064;-72
2021/12/05 17:28:55;;;;;;;20.90;13.05;;;4.70;99.90;;;;;;5035494;28;20128;-72
2021/12/05 17:31:42;;;;;;;22.08;13.73;;;4.70;99.90;;;;;;5052285;28;20077;-72
2021/12/05 17:34:25;;;;;;;23.65;14.15;;;4.70;99.90;;;;;;5052400;28;20049;-72
2021/12/05 17:36:56;;;;;;;23.17;14.15;;;4.70;99.90;;;;;;5052267;28;20780;-74
2021/12/05 17:39:25;;;;;;;21.35;15.05;;;4.70;99.90;;;;;;5052054;28;20045;-74
2021/12/05 17:41:55;;;;;;;25.38;14.77;;;4.70;99.90;;;;;;5052415;28;20041;-74
2021/12/05 17:44:23;;;;;;;23.23;14.77;;;4.70;99.90;;;;;;5052059;28;20033;-74
2021/12/05 17:46:51;;;;;;;24.63;14.20;;;4.70;99.90;;;;;;5051841;28;20132;-74
2021/12/05 17:49:18;;;;;;;24.90;15.50;;;4.80;99.90;;;;;;5051713;28;20084;-74
2021/12/05 17:51:45;;;;;;;29.55;15.05;;;4.80;99.90;;;;;;5052314;28;20098;-74
2021/12/05 17:54:30;;;;;;;28.13;15.27;;;4.80;99.90;;;;;;5051293;28;20044;-74
2021/12/05 17:57:03;;;;;;;23.50;14.80;;;4.80;99.90;;;;;;5042112;28;20041;-73
2021/12/05 18:04:50;;;;;;;27.67;15.55;;;4.70;99.90;;;;;;5051804;28;20131;-74
2021/12/05 18:07:18;;;;;;;26.98;15.48;;;4.70;99.90;;;;;;5051492;28;20135;-74
2021/12/05 18:09:44;;;;;;;27.13;15.10;;;4.80;99.90;;;;;;5051479;28;20033;-75
2021/12/05 18:12:18;;;;;;;29.05;14.48;;;4.70;99.90;;;;;;5051854;28;20071;-74
2021/12/05 18:14:44;;;;;;;27.25;14.80;;;4.70;99.90;;;;;;5051673;28;20081;-74